sensor_id;sensor_type;location;lat;lon;timestamp;P1;durP1;ratioP1;P2;durP2;ratioP2
72785;SDS011;60902;53.876;10.674;2023-03-14T00:00:06;5.40;;;1.70;;
72785;SDS011;60902;53.876;10.674;2023-03-14T00:00:20;5.25;;;1.67;;
72785;SDS011;60902;53.876;10.674;2023-03-14T00:00:31;5.40;;;1.67;;
72785;SDS011;60902;53.876;10.674;2023-03-14T00:00:42;5.35;;;1.52;;
72785;SDS011;60902;53.876;10.674;2023-03-14T00:00:53;5.27;;;1.53;;
72785;SDS011;60902;53.876;10.674;2023-03-14T00:01:07;5.63;;;1.58;;
72785;SDS011;60902;53.876;10.674;2023-03-14T00:01:20;6.78;;;1.73;;
72785;SDS011;60902;53.876;10.674;2023-03-14T00:01:31;6.72;;;1.80;;
72785;SDS011;60902;53.876;10.674;2023-03-14T00:01:43;5.72;;;1.52;;
72785;SDS011;60902;53.876;10.674;2023-03-14T00:01:55;4.78;;;1.70;;
72785;SDS011;60902;53.876;10.674;2023-03-14T00:02:06;4.85;;;1.52;;
72785;SDS011;60902;53.876;10.674;2023-03-14T00:02:16;5.07;;;1.50;;
72785;SDS011;60902;53.876;10.674;2023-03-14T00:02:27;5.78;;;1.50;;
72785;SDS011;60902;53.876;10.674;2023-03-14T00:02:38;4.90;;;1.40;;
72785;SDS011;60902;53.876;10.674;2023-03-14T00:02:51;4.65;;;1.70;;
72785;SDS011;60902;53.876;10.674;2023-03-14T00:03:02;5.10;;;1.70;;
72785;SDS011;60902;53.876;10.674;2023-03-14T00:03:14;5.75;;;1.73;;
72785;SDS011;60902;53.876;10.674;2023-03-14T00:03:25;5.60;;;1.60;;
72785;SDS011;60902;53.876;10.674;2023-03-14T00:03:40;4.72;;;1.58;;
72785;SDS011;60902;53.876;10.674;2023-03-14T00:03:51;4.97;;;1.50;;
72785;SDS011;60902;53.876;10.674;2023-03-14T00:04:03;5.00;;;1.60;;
72785;SDS011;60902;53.876;10.674;2023-03-14T00:04:15;5.47;;;1.60;;
72785;SDS011;60902;53.876;10.674;2023-03-14T00:04:26;5.60;;;1.60;;
72785;SDS011;60902;53.876;10.674;2023-03-14T00:04:37;6.63;;;1.63;;
72785;SDS011;60902;53.876;10.674;2023-03-14T00:04:48;6.22;;;1.48;;
72785;SDS011;60902;53.876;10.674;2023-03-14T00:04:59;5.40;;;1.48;;
72785;SDS011;60902;53.876;10.674;2023-03-14T00:05:12;5.22;;;1.55;;
72785;SDS011;60902;53.876;10.674;2023-03-14T00:05:23;5.97;;;1.70;;
72785;SDS011;60902;53.876;10.674;2023-03-14T00:05:35;6.37;;;1.80;;
72785;SDS011;60902;53.876;10.674;2023-03-14T00:05:46;5.88;;;1.70;;
72785;SDS011;60902;53.876;10.674;2023-03-14T00:06:01;5.45;;;1.50;;
72785;SDS011;60902;53.876;10.674;2023-03-14T00:06:15;5.22;;;1.50;;
72785;SDS011;60902;53.876;10.674;2023-03-14T00:06:26;5.13;;;1.52;;
72785;SDS011;60902;53.876;10.674;2023-03-14T00:06:37;4.80;;;1.55;;
72785;SDS011;60902;53.876;10.674;2023-03-14T00:06:48;4.43;;;1.40;;
72785;SDS011;60902;53.876;10.674;2023-03-14T00:06:59;4.65;;;1.42;;
72785;SDS011;60902;53.876;10.674;2023-03-14T00:07:10;5.07;;;1.48;;
72785;SDS011;60902;53.876;10.674;2023-03-14T00:07:21;5.72;;;1.50;;
72785;SDS011;60902;53.876;10.674;2023-03-14T00:07:34;6.07;;;1.60;;
72785;SDS011;60902;53.876;10.674;2023-03-14T00:07:47;5.97;;;1.60;;
72785;SDS011;60902;53.876;10.674;2023-03-14T00:07:58;6.13;;;1.48;;
72785;SDS011;60902;53.876;10.674;2023-03-14T00:08:09;6.30;;;1.58;;
72785;SDS011;60902;53.876;10.674;2023-03-14T00:08:20;5.90;;;1.50;;
72785;SDS011;60902;53.876;10.674;2023-03-14T00:08:31;5.28;;;1.55;;
72785;SDS011;60902;53.876;10.674;2023-03-14T00:08:43;5.63;;;1.60;;
72785;SDS011;60902;53.876;10.674;2023-03-14T00:08:54;5.43;;;1.60;;
72785;SDS011;60902;53.876;10.674;2023-03-14T00:09:05;5.35;;;1.60;;
72785;SDS011;60902;53.876;10.674;2023-03-14T00:09:18;5.13;;;1.52;;
72785;SDS011;60902;53.876;10.674;2023-03-14T00:09:29;5.43;;;1.45;;
72785;SDS011;60902;53.876;10.674;2023-03-14T00:09:41;7.38;;;1.65;;
72785;SDS011;60902;53.876;10.674;2023-03-14T00:09:52;7.00;;;1.65;;
72785;SDS011;60902;53.876;10.674;2023-03-14T00:10:05;6.32;;;1.77;;
72785;SDS011;60902;53.876;10.674;2023-03-14T00:10:17;5.53;;;1.58;;
72785;SDS011;60902;53.876;10.674;2023-03-14T00:10:28;4.80;;;1.45;;
72785;SDS011;60902;53.876;10.674;2023-03-14T00:10:39;5.18;;;1.80;;
72785;SDS011;60902;53.876;10.674;2023-03-14T00:10:51;5.15;;;1.80;;
72785;SDS011;60902;53.876;10.674;2023-03-14T00:11:06;5.13;;;1.90;;
72785;SDS011;60902;53.876;10.674;2023-03-14T00:11:18;5.03;;;1.70;;
72785;SDS011;60902;53.876;10.674;2023-03-14T00:11:30;5.00;;;1.60;;
72785;SDS011;60902;53.876;10.674;2023-03-14T00:11:41;5.10;;;1.50;;
72785;SDS011;60902;53.876;10.674;2023-03-14T00:11:52;5.75;;;1.40;;
72785;SDS011;60902;53.876;10.674;2023-03-14T00:12:05;6.55;;;1.50;;
72785;SDS011;60902;53.876;10.674;2023-03-14T00:12:17;6.30;;;1.60;;
72785;SDS011;60902;53.876;10.674;2023-03-14T00:12:28;5.47;;;1.48;;
72785;SDS011;60902;53.876;10.674;2023-03-14T00:12:39;4.55;;;1.38;;
72785;SDS011;60902;53.876;10.674;2023-03-14T00:12:50;5.22;;;1.40;;
72785;SDS011;60902;53.876;10.674;2023-03-14T00:13:01;5.57;;;1.60;;
72785;SDS011;60902;53.876;10.674;2023-03-14T00:13:11;5.32;;;1.60;;
72785;SDS011;60902;53.876;10.674;2023-03-14T00:13:23;5.60;;;1.70;;
72785;SDS011;60902;53.876;10.674;2023-03-14T00:13:34;5.63;;;2.00;;
72785;SDS011;60902;53.876;10.674;2023-03-14T00:13:46;6.20;;;2.17;;
72785;SDS011;60902;53.876;10.674;2023-03-14T00:13:57;5.68;;;1.77;;
72785;SDS011;60902;53.876;10.674;2023-03-14T00:14:09;5.90;;;1.60;;
72785;SDS011;60902;53.876;10.674;2023-03-14T00:14:20;5.43;;;1.40;;
72785;SDS011;60902;53.876;10.674;2023-03-14T00:14:31;5.53;;;1.65;;
72785;SDS011;60902;53.876;10.674;2023-03-14T00:14:42;4.77;;;1.53;;
72785;SDS011;60902;53.876;10.674;2023-03-14T00:14:54;4.45;;;1.60;;
72785;SDS011;60902;53.876;10.674;2023-03-14T00:15:05;4.32;;;1.30;;
72785;SDS011;60902;53.876;10.674;2023-03-14T00:15:17;4.80;;;1.30;;
72785;SDS011;60902;53.876;10.674;2023-03-14T00:15:28;5.18;;;1.50;;
72785;SDS011;60902;53.876;10.674;2023-03-14T00:15:39;4.78;;;1.38;;
72785;SDS011;60902;53.876;10.674;2023-03-14T00:15:50;5.45;;;1.48;;
72785;SDS011;60902;53.876;10.674;2023-03-14T00:16:02;5.60;;;1.40;;
72785;SDS011;60902;53.876;10.674;2023-03-14T00:16:14;5.22;;;1.48;;
72785;SDS011;60902;53.876;10.674;2023-03-14T00:16:26;5.43;;;1.50;;
72785;SDS011;60902;53.876;10.674;2023-03-14T00:16:37;5.15;;;1.50;;
72785;SDS011;60902;53.876;10.674;2023-03-14T00:16:47;5.05;;;1.52;;
72785;SDS011;60902;53.876;10.674;2023-03-14T00:16:59;5.05;;;1.55;;
72785;SDS011;60902;53.876;10.674;2023-03-14T00:17:10;5.20;;;1.60;;
72785;SDS011;60902;53.876;10.674;2023-03-14T00:17:21;4.45;;;1.40;;
72785;SDS011;60902;53.876;10.674;2023-03-14T00:17:33;4.72;;;1.42;;
72785;SDS011;60902;53.876;10.674;2023-03-14T00:17:44;4.45;;;1.42;;
72785;SDS011;60902;53.876;10.674;2023-03-14T00:17:58;5.53;;;1.50;;
72785;SDS011;60902;53.876;10.674;2023-03-14T00:18:09;5.93;;;1.57;;
72785;SDS011;60902;53.876;10.674;2023-03-14T00:18:20;5.60;;;1.60;;
72785;SDS011;60902;53.876;10.674;2023-03-14T00:18:32;5.35;;;1.98;;
72785;SDS011;60902;53.876;10.674;2023-03-14T00:18:43;6.90;;;2.00;;
72785;SDS011;60902;53.876;10.674;2023-03-14T00:18:54;6.70;;;2.00;;
72785;SDS011;60902;53.876;10.674;2023-03-14T00:19:05;5.93;;;1.63;;
72785;SDS011;60902;53.876;10.674;2023-03-14T00:19:16;4.32;;;1.48;;
72785;SDS011;60902;53.876;10.674;2023-03-14T00:19:28;4.63;;;1.40;;
72785;SDS011;60902;53.876;10.674;2023-03-14T00:19:40;4.93;;;1.48;;
72785;SDS011;60902;53.876;10.674;2023-03-14T00:19:52;5.50;;;1.70;;
72785;SDS011;60902;53.876;10.674;2023-03-14T00:20:04;5.60;;;1.65;;
72785;SDS011;60902;53.876;10.674;2023-03-14T00:20:18;4.85;;;1.27;;
72785;SDS011;60902;53.876;10.674;2023-03-14T00:20:29;4.78;;;1.27;;
72785;SDS011;60902;53.876;10.674;2023-03-14T00:20:40;4.73;;;1.60;;
72785;SDS011;60902;53.876;10.674;2023-03-14T00:20:52;5.50;;;1.50;;
72785;SDS011;60902;53.876;10.674;2023-03-14T00:21:05;5.50;;;1.55;;
72785;SDS011;60902;53.876;10.674;2023-03-14T00:21:19;5.13;;;1.52;;
72785;SDS011;60902;53.876;10.674;2023-03-14T00:21:30;5.90;;;1.58;;
72785;SDS011;60902;53.876;10.674;2023-03-14T00:21:40;5.57;;;1.50;;
72785;SDS011;60902;53.876;10.674;2023-03-14T00:21:51;5.82;;;1.50;;
72785;SDS011;60902;53.876;10.674;2023-03-14T00:22:02;5.35;;;1.50;;
72785;SDS011;60902;53.876;10.674;2023-03-14T00:22:13;5.80;;;1.63;;
72785;SDS011;60902;53.876;10.674;2023-03-14T00:22:26;7.53;;;1.80;;
72785;SDS011;60902;53.876;10.674;2023-03-14T00:22:38;6.93;;;1.70;;
72785;SDS011;60902;53.876;10.674;2023-03-14T00:22:49;5.63;;;1.65;;
72785;SDS011;60902;53.876;10.674;2023-03-14T00:23:00;4.93;;;1.80;;
72785;SDS011;60902;53.876;10.674;2023-03-14T00:23:12;4.72;;;1.73;;
72785;SDS011;60902;53.876;10.674;2023-03-14T00:23:24;4.70;;;1.60;;
72785;SDS011;60902;53.876;10.674;2023-03-14T00:23:37;5.38;;;1.58;;
72785;SDS011;60902;53.876;10.674;2023-03-14T00:23:49;5.27;;;1.50;;
72785;SDS011;60902;53.876;10.674;2023-03-14T00:24:02;4.25;;;1.38;;
72785;SDS011;60902;53.876;10.674;2023-03-14T00:24:13;4.32;;;1.30;;
72785;SDS011;60902;53.876;10.674;2023-03-14T00:24:24;4.55;;;1.40;;
72785;SDS011;60902;53.876;10.674;2023-03-14T00:24:35;4.55;;;1.38;;
72785;SDS011;60902;53.876;10.674;2023-03-14T00:24:48;4.80;;;1.30;;
72785;SDS011;60902;53.876;10.674;2023-03-14T00:24:59;4.43;;;1.20;;
72785;SDS011;60902;53.876;10.674;2023-03-14T00:25:10;4.60;;;1.30;;
72785;SDS011;60902;53.876;10.674;2023-03-14T00:25:22;5.53;;;1.38;;
72785;SDS011;60902;53.876;10.674;2023-03-14T00:25:34;6.13;;;1.70;;
72785;SDS011;60902;53.876;10.674;2023-03-14T00:25:45;6.57;;;1.80;;
72785;SDS011;60902;53.876;10.674;2023-03-14T00:25:58;6.38;;;1.88;;
72785;SDS011;60902;53.876;10.674;2023-03-14T00:26:10;6.35;;;2.13;;
72785;SDS011;60902;53.876;10.674;2023-03-14T00:26:22;6.00;;;2.60;;
72785;SDS011;60902;53.876;10.674;2023-03-14T00:26:33;6.30;;;2.28;;
72785;SDS011;60902;53.876;10.674;2023-03-14T00:26:44;6.05;;;2.03;;
72785;SDS011;60902;53.876;10.674;2023-03-14T00:26:58;5.97;;;1.50;;
72785;SDS011;60902;53.876;10.674;2023-03-14T00:27:09;5.33;;;1.50;;
72785;SDS011;60902;53.876;10.674;2023-03-14T00:27:20;5.70;;;1.58;;
72785;SDS011;60902;53.876;10.674;2023-03-14T00:27:31;5.13;;;1.42;;
72785;SDS011;60902;53.876;10.674;2023-03-14T00:27:42;6.00;;;1.50;;
72785;SDS011;60902;53.876;10.674;2023-03-14T00:27:53;5.65;;;1.60;;
72785;SDS011;60902;53.876;10.674;2023-03-14T00:28:04;5.68;;;1.65;;
72785;SDS011;60902;53.876;10.674;2023-03-14T00:28:15;5.37;;;1.50;;
72785;SDS011;60902;53.876;10.674;2023-03-14T00:28:27;6.63;;;1.50;;
72785;SDS011;60902;53.876;10.674;2023-03-14T00:28:38;6.50;;;1.50;;
72785;SDS011;60902;53.876;10.674;2023-03-14T00:28:51;6.03;;;1.48;;
72785;SDS011;60902;53.876;10.674;2023-03-14T00:29:03;4.88;;;1.77;;
72785;SDS011;60902;53.876;10.674;2023-03-14T00:29:13;4.85;;;1.90;;
72785;SDS011;60902;53.876;10.674;2023-03-14T00:29:24;5.32;;;2.00;;
72785;SDS011;60902;53.876;10.674;2023-03-14T00:29:35;5.60;;;2.03;;
72785;SDS011;60902;53.876;10.674;2023-03-14T00:29:46;6.20;;;1.80;;
72785;SDS011;60902;53.876;10.674;2023-03-14T00:29:57;6.28;;;1.55;;
72785;SDS011;60902;53.876;10.674;2023-03-14T00:30:09;6.68;;;1.60;;
72785;SDS011;60902;53.876;10.674;2023-03-14T00:30:22;5.47;;;1.60;;
72785;SDS011;60902;53.876;10.674;2023-03-14T00:30:36;5.28;;;1.50;;
72785;SDS011;60902;53.876;10.674;2023-03-14T00:30:47;5.03;;;1.50;;
72785;SDS011;60902;53.876;10.674;2023-03-14T00:30:58;5.28;;;1.42;;
72785;SDS011;60902;53.876;10.674;2023-03-14T00:31:12;5.88;;;1.60;;
72785;SDS011;60902;53.876;10.674;2023-03-14T00:31:24;5.55;;;1.58;;
72785;SDS011;60902;53.876;10.674;2023-03-14T00:31:35;5.22;;;1.55;;
72785;SDS011;60902;53.876;10.674;2023-03-14T00:31:49;5.25;;;1.60;;
72785;SDS011;60902;53.876;10.674;2023-03-14T00:32:00;5.70;;;1.70;;
72785;SDS011;60902;53.876;10.674;2023-03-14T00:32:11;5.50;;;1.60;;
72785;SDS011;60902;53.876;10.674;2023-03-14T00:32:22;5.43;;;1.57;;
72785;SDS011;60902;53.876;10.674;2023-03-14T00:32:33;5.07;;;1.55;;
72785;SDS011;60902;53.876;10.674;2023-03-14T00:32:44;5.05;;;1.50;;
72785;SDS011;60902;53.876;10.674;2023-03-14T00:32:55;5.13;;;1.58;;
72785;SDS011;60902;53.876;10.674;2023-03-14T00:33:07;5.25;;;1.65;;
72785;SDS011;60902;53.876;10.674;2023-03-14T00:33:17;4.90;;;1.77;;
72785;SDS011;60902;53.876;10.674;2023-03-14T00:33:30;4.95;;;1.70;;
72785;SDS011;60902;53.876;10.674;2023-03-14T00:33:42;5.47;;;1.67;;
72785;SDS011;60902;53.876;10.674;2023-03-14T00:33:54;5.55;;;1.83;;
72785;SDS011;60902;53.876;10.674;2023-03-14T00:34:05;5.13;;;1.87;;
72785;SDS011;60902;53.876;10.674;2023-03-14T00:34:16;4.97;;;1.80;;
72785;SDS011;60902;53.876;10.674;2023-03-14T00:34:28;5.65;;;1.70;;
72785;SDS011;60902;53.876;10.674;2023-03-14T00:34:39;5.20;;;1.70;;
72785;SDS011;60902;53.876;10.674;2023-03-14T00:34:51;5.18;;;1.60;;
72785;SDS011;60902;53.876;10.674;2023-03-14T00:35:02;4.72;;;1.42;;
72785;SDS011;60902;53.876;10.674;2023-03-14T00:35:13;5.20;;;1.40;;
72785;SDS011;60902;53.876;10.674;2023-03-14T00:35:24;4.93;;;1.58;;
72785;SDS011;60902;53.876;10.674;2023-03-14T00:35:35;5.05;;;1.63;;
72785;SDS011;60902;53.876;10.674;2023-03-14T00:35:51;5.47;;;1.92;;
72785;SDS011;60902;53.876;10.674;2023-03-14T00:36:05;5.80;;;1.88;;
72785;SDS011;60902;53.876;10.674;2023-03-14T00:36:19;5.35;;;1.73;;
72785;SDS011;60902;53.876;10.674;2023-03-14T00:36:31;5.78;;;1.77;;
72785;SDS011;60902;53.876;10.674;2023-03-14T00:36:42;5.43;;;1.77;;
72785;SDS011;60902;53.876;10.674;2023-03-14T00:36:54;5.13;;;1.52;;
72785;SDS011;60902;53.876;10.674;2023-03-14T00:37:05;4.95;;;1.38;;
72785;SDS011;60902;53.876;10.674;2023-03-14T00:37:16;4.87;;;1.47;;
72785;SDS011;60902;53.876;10.674;2023-03-14T00:37:28;6.00;;;1.70;;
72785;SDS011;60902;53.876;10.674;2023-03-14T00:37:39;5.80;;;1.43;;
72785;SDS011;60902;53.876;10.674;2023-03-14T00:37:51;6.15;;;1.52;;
72785;SDS011;60902;53.876;10.674;2023-03-14T00:38:02;5.78;;;1.40;;
72785;SDS011;60902;53.876;10.674;2023-03-14T00:38:13;6.40;;;1.40;;
72785;SDS011;60902;53.876;10.674;2023-03-14T00:38:24;6.60;;;1.50;;
72785;SDS011;60902;53.876;10.674;2023-03-14T00:38:35;7.47;;;1.90;;
72785;SDS011;60902;53.876;10.674;2023-03-14T00:38:49;6.75;;;2.00;;
72785;SDS011;60902;53.876;10.674;2023-03-14T00:39:01;5.63;;;2.03;;
72785;SDS011;60902;53.876;10.674;2023-03-14T00:39:12;5.43;;;1.85;;
72785;SDS011;60902;53.876;10.674;2023-03-14T00:39:23;6.25;;;1.77;;
72785;SDS011;60902;53.876;10.674;2023-03-14T00:39:34;6.37;;;1.60;;
72785;SDS011;60902;53.876;10.674;2023-03-14T00:39:45;6.95;;;1.70;;
72785;SDS011;60902;53.876;10.674;2023-03-14T00:39:57;5.97;;;1.73;;
72785;SDS011;60902;53.876;10.674;2023-03-14T00:40:09;5.00;;;1.60;;
72785;SDS011;60902;53.876;10.674;2023-03-14T00:40:21;4.88;;;1.73;;
72785;SDS011;60902;53.876;10.674;2023-03-14T00:40:32;4.97;;;1.73;;
72785;SDS011;60902;53.876;10.674;2023-03-14T00:40:43;5.40;;;1.70;;
72785;SDS011;60902;53.876;10.674;2023-03-14T00:40:54;5.55;;;1.58;;
72785;SDS011;60902;53.876;10.674;2023-03-14T00:41:05;5.38;;;1.50;;
72785;SDS011;60902;53.876;10.674;2023-03-14T00:41:19;5.25;;;1.42;;
72785;SDS011;60902;53.876;10.674;2023-03-14T00:41:33;5.40;;;1.40;;
72785;SDS011;60902;53.876;10.674;2023-03-14T00:41:44;4.90;;;1.70;;
72785;SDS011;60902;53.876;10.674;2023-03-14T00:41:55;4.50;;;1.65;;
72785;SDS011;60902;53.876;10.674;2023-03-14T00:42:07;4.32;;;1.77;;
72785;SDS011;60902;53.876;10.674;2023-03-14T00:42:18;4.63;;;1.90;;
72785;SDS011;60902;53.876;10.674;2023-03-14T00:42:29;6.35;;;1.92;;
72785;SDS011;60902;53.876;10.674;2023-03-14T00:42:42;6.80;;;1.88;;
72785;SDS011;60902;53.876;10.674;2023-03-14T00:42:55;6.32;;;1.90;;
72785;SDS011;60902;53.876;10.674;2023-03-14T00:43:06;6.03;;;2.00;;
72785;SDS011;60902;53.876;10.674;2023-03-14T00:43:17;6.53;;;1.98;;
72785;SDS011;60902;53.876;10.674;2023-03-14T00:43:28;5.75;;;1.77;;
72785;SDS011;60902;53.876;10.674;2023-03-14T00:43:39;5.35;;;1.60;;
72785;SDS011;60902;53.876;10.674;2023-03-14T00:43:50;4.82;;;1.48;;
72785;SDS011;60902;53.876;10.674;2023-03-14T00:44:01;4.97;;;1.48;;
72785;SDS011;60902;53.876;10.674;2023-03-14T00:44:12;4.88;;;1.60;;
72785;SDS011;60902;53.876;10.674;2023-03-14T00:44:24;4.85;;;1.60;;
72785;SDS011;60902;53.876;10.674;2023-03-14T00:44:35;5.13;;;1.65;;
72785;SDS011;60902;53.876;10.674;2023-03-14T00:44:46;5.43;;;1.60;;
72785;SDS011;60902;53.876;10.674;2023-03-14T00:44:57;5.30;;;1.60;;
72785;SDS011;60902;53.876;10.674;2023-03-14T00:45:08;5.47;;;1.50;;
72785;SDS011;60902;53.876;10.674;2023-03-14T00:45:20;5.05;;;1.60;;
72785;SDS011;60902;53.876;10.674;2023-03-14T00:45:31;5.27;;;1.67;;
72785;SDS011;60902;53.876;10.674;2023-03-14T00:45:41;5.70;;;1.70;;
72785;SDS011;60902;53.876;10.674;2023-03-14T00:45:52;5.43;;;1.67;;
72785;SDS011;60902;53.876;10.674;2023-03-14T00:46:05;5.78;;;1.67;;
72785;SDS011;60902;53.876;10.674;2023-03-14T00:46:16;5.60;;;1.50;;
72785;SDS011;60902;53.876;10.674;2023-03-14T00:46:27;6.15;;;1.67;;
72785;SDS011;60902;53.876;10.674;2023-03-14T00:46:38;5.10;;;1.58;;
72785;SDS011;60902;53.876;10.674;2023-03-14T00:46:49;6.03;;;1.95;;
72785;SDS011;60902;53.876;10.674;2023-03-14T00:47:00;6.40;;;1.97;;
72785;SDS011;60902;53.876;10.674;2023-03-14T00:47:11;7.45;;;2.05;;
72785;SDS011;60902;53.876;10.674;2023-03-14T00:47:22;6.72;;;1.63;;
72785;SDS011;60902;53.876;10.674;2023-03-14T00:47:34;6.65;;;1.70;;
72785;SDS011;60902;53.876;10.674;2023-03-14T00:47:45;6.35;;;1.70;;
72785;SDS011;60902;53.876;10.674;2023-03-14T00:47:56;5.68;;;1.70;;
72785;SDS011;60902;53.876;10.674;2023-03-14T00:48:06;4.93;;;1.58;;
72785;SDS011;60902;53.876;10.674;2023-03-14T00:48:18;5.22;;;1.60;;
72785;SDS011;60902;53.876;10.674;2023-03-14T00:48:29;6.80;;;1.90;;
72785;SDS011;60902;53.876;10.674;2023-03-14T00:48:41;7.43;;;2.03;;
72785;SDS011;60902;53.876;10.674;2023-03-14T00:48:54;6.45;;;2.00;;
72785;SDS011;60902;53.876;10.674;2023-03-14T00:49:05;6.15;;;1.80;;
72785;SDS011;60902;53.876;10.674;2023-03-14T00:49:15;5.22;;;1.50;;
72785;SDS011;60902;53.876;10.674;2023-03-14T00:49:26;4.32;;;1.35;;
72785;SDS011;60902;53.876;10.674;2023-03-14T00:49:37;3.97;;;1.38;;
72785;SDS011;60902;53.876;10.674;2023-03-14T00:49:48;3.93;;;1.40;;
72785;SDS011;60902;53.876;10.674;2023-03-14T00:49:59;5.00;;;1.50;;
72785;SDS011;60902;53.876;10.674;2023-03-14T00:50:10;6.30;;;1.60;;
72785;SDS011;60902;53.876;10.674;2023-03-14T00:50:23;6.22;;;1.58;;
72785;SDS011;60902;53.876;10.674;2023-03-14T00:50:33;4.93;;;1.40;;
72785;SDS011;60902;53.876;10.674;2023-03-14T00:50:44;5.40;;;1.40;;
72785;SDS011;60902;53.876;10.674;2023-03-14T00:50:55;5.90;;;1.52;;
72785;SDS011;60902;53.876;10.674;2023-03-14T00:51:07;5.95;;;1.77;;
72785;SDS011;60902;53.876;10.674;2023-03-14T00:51:19;5.20;;;1.63;;
72785;SDS011;60902;53.876;10.674;2023-03-14T00:51:29;4.50;;;1.38;;
72785;SDS011;60902;53.876;10.674;2023-03-14T00:51:41;4.50;;;1.40;;
72785;SDS011;60902;53.876;10.674;2023-03-14T00:51:52;5.13;;;1.50;;
72785;SDS011;60902;53.876;10.674;2023-03-14T00:52:03;6.07;;;1.65;;
72785;SDS011;60902;53.876;10.674;2023-03-14T00:52:14;6.65;;;1.60;;
72785;SDS011;60902;53.876;10.674;2023-03-14T00:52:26;6.25;;;1.70;;
72785;SDS011;60902;53.876;10.674;2023-03-14T00:52:37;5.20;;;1.65;;
72785;SDS011;60902;53.876;10.674;2023-03-14T00:52:48;4.90;;;1.73;;
72785;SDS011;60902;53.876;10.674;2023-03-14T00:52:59;5.53;;;1.90;;
72785;SDS011;60902;53.876;10.674;2023-03-14T00:53:11;5.78;;;1.80;;
72785;SDS011;60902;53.876;10.674;2023-03-14T00:53:23;5.68;;;1.88;;
72785;SDS011;60902;53.876;10.674;2023-03-14T00:53:35;5.85;;;1.90;;
72785;SDS011;60902;53.876;10.674;2023-03-14T00:53:46;5.57;;;1.85;;
72785;SDS011;60902;53.876;10.674;2023-03-14T00:53:59;5.07;;;1.30;;
72785;SDS011;60902;53.876;10.674;2023-03-14T00:54:10;5.53;;;1.48;;
72785;SDS011;60902;53.876;10.674;2023-03-14T00:54:21;5.78;;;1.60;;
72785;SDS011;60902;53.876;10.674;2023-03-14T00:54:32;5.75;;;1.73;;
72785;SDS011;60902;53.876;10.674;2023-03-14T00:54:43;5.15;;;1.65;;
72785;SDS011;60902;53.876;10.674;2023-03-14T00:54:56;5.25;;;2.10;;
72785;SDS011;60902;53.876;10.674;2023-03-14T00:55:07;5.80;;;2.20;;
72785;SDS011;60902;53.876;10.674;2023-03-14T00:55:18;5.15;;;1.70;;
72785;SDS011;60902;53.876;10.674;2023-03-14T00:55:29;5.32;;;1.60;;
72785;SDS011;60902;53.876;10.674;2023-03-14T00:55:41;5.40;;;1.70;;
72785;SDS011;60902;53.876;10.674;2023-03-14T00:55:53;6.03;;;1.77;;
72785;SDS011;60902;53.876;10.674;2023-03-14T00:56:06;5.25;;;1.60;;
72785;SDS011;60902;53.876;10.674;2023-03-14T00:56:19;6.35;;;1.65;;
72785;SDS011;60902;53.876;10.674;2023-03-14T00:56:30;6.45;;;1.88;;
72785;SDS011;60902;53.876;10.674;2023-03-14T00:56:41;6.55;;;1.85;;
72785;SDS011;60902;53.876;10.674;2023-03-14T00:56:52;5.97;;;1.90;;
72785;SDS011;60902;53.876;10.674;2023-03-14T00:57:02;6.07;;;1.73;;
72785;SDS011;60902;53.876;10.674;2023-03-14T00:57:13;6.60;;;1.67;;
72785;SDS011;60902;53.876;10.674;2023-03-14T00:57:25;6.35;;;1.45;;
72785;SDS011;60902;53.876;10.674;2023-03-14T00:57:36;6.00;;;1.60;;
72785;SDS011;60902;53.876;10.674;2023-03-14T00:57:47;5.43;;;1.60;;
72785;SDS011;60902;53.876;10.674;2023-03-14T00:57:58;5.32;;;1.63;;
72785;SDS011;60902;53.876;10.674;2023-03-14T00:58:09;4.88;;;1.80;;
72785;SDS011;60902;53.876;10.674;2023-03-14T00:58:21;5.30;;;1.98;;
72785;SDS011;60902;53.876;10.674;2023-03-14T00:58:32;5.63;;;1.98;;
72785;SDS011;60902;53.876;10.674;2023-03-14T00:58:44;5.18;;;1.60;;
72785;SDS011;60902;53.876;10.674;2023-03-14T00:58:55;4.60;;;1.50;;
72785;SDS011;60902;53.876;10.674;2023-03-14T00:59:06;6.03;;;1.60;;
72785;SDS011;60902;53.876;10.674;2023-03-14T00:59:17;6.20;;;1.80;;
72785;SDS011;60902;53.876;10.674;2023-03-14T00:59:27;6.15;;;1.95;;
72785;SDS011;60902;53.876;10.674;2023-03-14T00:59:38;5.60;;;1.90;;
72785;SDS011;60902;53.876;10.674;2023-03-14T00:59:50;5.88;;;1.85;;
72785;SDS011;60902;53.876;10.674;2023-03-14T01:00:01;6.18;;;1.80;;
72785;SDS011;60902;53.876;10.674;2023-03-14T01:00:20;6.28;;;1.95;;
72785;SDS011;60902;53.876;10.674;2023-03-14T01:00:32;6.88;;;2.00;;
72785;SDS011;60902;53.876;10.674;2023-03-14T01:00:43;6.85;;;1.98;;
72785;SDS011;60902;53.876;10.674;2023-03-14T01:00:55;6.40;;;1.65;;
72785;SDS011;60902;53.876;10.674;2023-03-14T01:01:06;5.82;;;1.65;;
72785;SDS011;60902;53.876;10.674;2023-03-14T01:01:18;5.57;;;1.70;;
72785;SDS011;60902;53.876;10.674;2023-03-14T01:01:29;5.57;;;1.83;;
72785;SDS011;60902;53.876;10.674;2023-03-14T01:01:40;6.00;;;1.60;;
72785;SDS011;60902;53.876;10.674;2023-03-14T01:01:52;5.60;;;1.60;;
72785;SDS011;60902;53.876;10.674;2023-03-14T01:02:03;5.07;;;1.60;;
72785;SDS011;60902;53.876;10.674;2023-03-14T01:02:14;5.18;;;1.67;;
72785;SDS011;60902;53.876;10.674;2023-03-14T01:02:25;6.07;;;1.83;;
72785;SDS011;60902;53.876;10.674;2023-03-14T01:02:36;6.30;;;1.80;;
72785;SDS011;60902;53.876;10.674;2023-03-14T01:02:46;6.68;;;1.88;;
72785;SDS011;60902;53.876;10.674;2023-03-14T01:02:57;6.13;;;1.80;;
72785;SDS011;60902;53.876;10.674;2023-03-14T01:03:10;6.53;;;1.75;;
72785;SDS011;60902;53.876;10.674;2023-03-14T01:03:21;6.00;;;1.60;;
72785;SDS011;60902;53.876;10.674;2023-03-14T01:03:34;5.20;;;1.50;;
72785;SDS011;60902;53.876;10.674;2023-03-14T01:03:45;5.03;;;1.42;;
72785;SDS011;60902;53.876;10.674;2023-03-14T01:03:56;6.10;;;1.45;;
72785;SDS011;60902;53.876;10.674;2023-03-14T01:04:06;6.63;;;1.50;;
72785;SDS011;60902;53.876;10.674;2023-03-14T01:04:17;6.77;;;1.80;;
72785;SDS011;60902;53.876;10.674;2023-03-14T01:04:28;6.78;;;1.90;;
72785;SDS011;60902;53.876;10.674;2023-03-14T01:04:41;5.80;;;1.90;;
72785;SDS011;60902;53.876;10.674;2023-03-14T01:04:53;5.65;;;1.90;;
72785;SDS011;60902;53.876;10.674;2023-03-14T01:05:04;5.07;;;1.80;;
72785;SDS011;60902;53.876;10.674;2023-03-14T01:05:15;5.35;;;1.65;;
72785;SDS011;60902;53.876;10.674;2023-03-14T01:05:26;5.70;;;1.50;;
72785;SDS011;60902;53.876;10.674;2023-03-14T01:05:37;6.18;;;1.70;;
72785;SDS011;60902;53.876;10.674;2023-03-14T01:05:48;5.95;;;1.80;;
72785;SDS011;60902;53.876;10.674;2023-03-14T01:06:07;6.07;;;1.90;;
72785;SDS011;60902;53.876;10.674;2023-03-14T01:06:23;5.85;;;1.50;;
72785;SDS011;60902;53.876;10.674;2023-03-14T01:06:36;5.95;;;1.60;;
72785;SDS011;60902;53.876;10.674;2023-03-14T01:06:48;5.90;;;1.70;;
72785;SDS011;60902;53.876;10.674;2023-03-14T01:06:59;5.97;;;1.77;;
72785;SDS011;60902;53.876;10.674;2023-03-14T01:07:11;5.47;;;1.63;;
72785;SDS011;60902;53.876;10.674;2023-03-14T01:07:21;5.78;;;1.58;;
72785;SDS011;60902;53.876;10.674;2023-03-14T01:07:32;5.82;;;1.70;;
72785;SDS011;60902;53.876;10.674;2023-03-14T01:07:44;6.05;;;1.80;;
72785;SDS011;60902;53.876;10.674;2023-03-14T01:07:54;6.30;;;1.98;;
72785;SDS011;60902;53.876;10.674;2023-03-14T01:08:05;5.70;;;1.77;;
72785;SDS011;60902;53.876;10.674;2023-03-14T01:08:17;6.00;;;1.75;;
72785;SDS011;60902;53.876;10.674;2023-03-14T01:08:28;6.30;;;1.73;;
72785;SDS011;60902;53.876;10.674;2023-03-14T01:08:41;6.82;;;2.00;;